Rubonia, Florida
Current Conditions -  °F | °C
As of 6:53 PM on Saturday 20 Dec 2014 (Local Time) from KSRQ Reporting Station
Clear Clear  
Wind Chill: 68°   Ceiling: Unl
Heat Index: 68°   Visibility: 10mi
Dew Point: 60°   Wind: 5mph
Humidity: 76%   Direction: 170°S
Pressure: 30.05"   Gusts: NA
Location:  27.5834°N, 82.5347°W
Report Text: KSRQ 202353Z AUTO 17004KT 10SM CLR 20/16 A3005 RMK AO2 SLP174 T02000156 10250 20200 53009
Loading
Personal Weather Stations






























Interactive Weather Map New forecast layout! Learn more

10-Day Weather Forecast

Advertisements
Track Severe Weather on mobile